createdAt,value
2019-03-26T00:00:56.122Z,0.00
2019-03-26T00:01:56.066Z,0.00
2019-03-26T00:02:56.073Z,0.00
2019-03-26T00:04:05.612Z,0.00
2019-03-26T00:04:56.093Z,0.00
2019-03-26T00:05:56.081Z,0.00
2019-03-26T00:06:56.133Z,0.00
2019-03-26T00:07:56.146Z,0.00
2019-03-26T00:08:56.096Z,0.00
2019-03-26T00:09:56.105Z,0.00
2019-03-26T00:10:56.137Z,0.00
2019-03-26T00:11:56.088Z,0.00
2019-03-26T00:12:56.119Z,0.00
2019-03-26T00:13:57.795Z,0.00
2019-03-26T00:14:56.094Z,0.00
2019-03-26T00:15:56.126Z,0.00
2019-03-26T00:16:56.121Z,0.00
2019-03-26T00:17:56.163Z,0.00
2019-03-26T00:18:56.230Z,0.00
2019-03-26T00:19:56.147Z,0.00
2019-03-26T00:20:56.169Z,0.00
2019-03-26T00:21:56.128Z,0.00
2019-03-26T00:22:56.163Z,0.00
2019-03-26T00:23:56.126Z,0.00
2019-03-26T00:24:56.116Z,0.00
2019-03-26T00:25:56.128Z,0.00
2019-03-26T00:26:56.195Z,0.00
2019-03-26T00:27:56.142Z,0.00
2019-03-26T00:28:56.192Z,0.00
2019-03-26T00:29:56.137Z,0.00
2019-03-26T00:30:56.166Z,0.00
2019-03-26T00:31:56.160Z,0.00
2019-03-26T00:32:56.182Z,0.00
2019-03-26T00:33:56.182Z,0.00
2019-03-26T00:34:56.205Z,0.00
2019-03-26T00:35:56.203Z,0.00
2019-03-26T00:36:56.210Z,0.00
2019-03-26T00:37:56.215Z,0.00
2019-03-26T00:38:56.177Z,0.00
2019-03-26T00:39:56.201Z,0.00
2019-03-26T00:40:56.224Z,0.00
2019-03-26T00:41:56.194Z,0.00
2019-03-26T00:42:56.182Z,0.00
2019-03-26T00:43:56.196Z,0.00
2019-03-26T00:44:56.256Z,0.00
2019-03-26T00:45:56.202Z,0.00
2019-03-26T00:46:56.243Z,0.00
2019-03-26T00:47:56.225Z,0.00
2019-03-26T00:48:56.226Z,0.00
2019-03-26T00:49:56.212Z,0.00
2019-03-26T00:50:56.242Z,0.00
2019-03-26T00:51:56.275Z,0.00
2019-03-26T00:52:56.204Z,0.00
2019-03-26T00:53:56.225Z,0.00
2019-03-26T00:54:56.266Z,0.00
2019-03-26T00:55:56.292Z,0.00
2019-03-26T00:56:56.263Z,0.00
2019-03-26T00:57:56.264Z,0.00
2019-03-26T00:58:56.240Z,0.00
2019-03-26T00:59:56.226Z,0.00
2019-03-26T01:00:56.281Z,0.00
2019-03-26T01:01:56.257Z,0.00
2019-03-26T01:02:56.270Z,0.00
2019-03-26T01:03:56.264Z,0.00
2019-03-26T01:04:56.273Z,0.00
2019-03-26T01:05:56.310Z,0.00
2019-03-26T01:06:56.285Z,0.00
2019-03-26T01:07:56.291Z,0.00
2019-03-26T01:08:56.396Z,0.00
2019-03-26T01:09:56.277Z,0.00
2019-03-26T01:10:56.383Z,0.00
2019-03-26T01:11:56.286Z,0.00
2019-03-26T01:12:56.320Z,0.00
2019-03-26T01:13:56.598Z,0.00
2019-03-26T01:14:56.275Z,0.00
2019-03-26T06:14:01.470Z,1380.00
2019-03-26T06:15:01.274Z,1184.00
2019-03-26T06:16:01.229Z,1076.00
2019-03-26T06:17:01.813Z,1308.00
2019-03-26T06:18:01.256Z,1064.00
2019-03-26T06:19:00.990Z,1268.00
2019-03-26T06:20:01.617Z,1216.00
2019-03-26T06:21:01.096Z,1240.00
2019-03-26T06:22:01.104Z,1396.00
2019-03-26T06:23:00.999Z,1460.00
2019-03-26T06:24:01.070Z,1340.00
2019-03-26T06:25:01.225Z,1628.00
2019-03-26T06:26:02.928Z,1860.00
2019-03-26T06:27:02.487Z,1768.00
2019-03-26T06:28:01.571Z,3352.00
2019-03-26T06:29:06.403Z,3804.00
2019-03-26T06:30:01.866Z,3476.00
2019-03-26T06:31:01.048Z,4208.00
2019-03-26T06:32:01.055Z,5504.00
2019-03-26T06:33:01.052Z,6284.00
2019-03-26T06:34:01.693Z,6632.00
2019-03-26T06:35:01.026Z,5020.00
2019-03-26T06:36:01.311Z,5392.00
2019-03-26T06:37:01.121Z,4976.00
2019-03-26T06:38:01.288Z,4952.00
2019-03-26T06:39:01.205Z,5632.00
2019-03-26T06:40:01.001Z,6088.00
2019-03-26T07:05:43.564Z,5404.00
2019-03-26T07:06:43.530Z,6964.00
2019-03-26T07:07:43.532Z,6760.00
2019-03-26T07:08:43.532Z,6712.00
2019-03-26T07:09:43.571Z,6456.00
2019-03-26T07:10:43.546Z,5384.00
2019-03-26T07:11:43.538Z,5632.00
2019-03-26T07:12:43.563Z,5656.00
2019-03-26T07:13:43.541Z,4852.00
2019-03-26T07:14:43.599Z,4964.00
2019-03-26T07:15:43.597Z,5012.00
2019-03-26T07:16:43.566Z,5036.00
2019-03-26T07:17:43.576Z,5084.00
2019-03-26T07:18:43.580Z,4512.00
2019-03-26T07:19:43.600Z,5120.00
2019-03-26T07:20:43.613Z,5300.00
2019-03-26T07:21:49.510Z,3912.00
2019-03-26T07:22:43.586Z,3160.00
2019-03-26T07:23:43.605Z,3424.00
2019-03-26T07:24:43.607Z,3160.00
2019-03-26T07:25:43.637Z,2996.00
2019-03-26T07:26:43.691Z,4812.00
2019-03-26T07:27:43.597Z,4248.00
2019-03-26T07:28:43.602Z,4224.00
2019-03-26T07:29:43.611Z,3984.00
2019-03-26T07:30:43.666Z,5196.00
2019-03-26T07:31:43.660Z,5716.00
2019-03-26T07:32:43.647Z,7276.00
2019-03-26T07:33:43.660Z,7016.00
2019-03-26T07:34:43.642Z,5916.00
2019-03-26T07:35:43.639Z,4848.00
2019-03-26T07:36:43.643Z,4632.00
2019-03-26T07:37:45.508Z,4612.00
2019-03-26T07:38:43.651Z,4696.00
2019-03-26T07:39:43.657Z,4976.00
2019-03-26T07:40:43.686Z,5140.00
2019-03-26T07:41:43.668Z,5360.00
2019-03-26T07:42:43.700Z,5188.00
2019-03-26T07:43:43.750Z,5544.00
2019-03-26T07:44:45.454Z,5308.00
2019-03-26T07:45:43.694Z,4832.00
2019-03-26T07:46:43.709Z,4552.00
2019-03-26T07:47:43.754Z,4544.00
2019-03-26T07:48:43.714Z,4864.00
2019-03-26T07:49:43.699Z,6152.00
2019-03-26T07:50:43.705Z,8708.00
2019-03-26T07:51:43.709Z,9048.00
2019-03-26T07:52:43.715Z,9852.00
2019-03-26T07:53:43.754Z,11292.00
2019-03-26T07:54:43.767Z,10552.00
2019-03-26T07:55:44.119Z,10708.00
2019-03-26T07:56:43.735Z,9316.00
2019-03-26T07:57:43.740Z,10716.00
2019-03-26T07:58:43.800Z,13076.00
2019-03-26T07:59:43.755Z,10760.00
2019-03-26T08:00:43.788Z,10684.00
2019-03-26T08:01:43.756Z,9328.00
2019-03-26T08:02:43.754Z,10208.00
2019-03-26T08:03:43.820Z,8272.00
2019-03-26T08:04:43.775Z,7084.00
2019-03-26T08:05:43.776Z,7872.00
2019-03-26T08:06:43.783Z,11124.00
2019-03-26T08:07:43.771Z,10256.00
2019-03-26T08:08:43.803Z,9308.00
2019-03-26T08:09:43.818Z,10004.00
2019-03-26T08:10:43.799Z,11788.00
2019-03-26T08:11:43.803Z,10324.00
2019-03-26T08:12:43.829Z,9384.00
2019-03-26T08:13:43.839Z,10244.00
2019-03-26T08:14:43.898Z,11072.00
2019-03-26T08:15:43.838Z,9992.00
2019-03-26T08:16:43.854Z,10240.00
2019-03-26T08:17:45.353Z,11552.00
2019-03-26T08:18:43.838Z,10140.00
2019-03-26T08:19:43.891Z,7084.00
2019-03-26T08:20:43.900Z,6452.00
2019-03-26T08:21:43.858Z,6552.00
2019-03-26T08:22:43.907Z,9068.00
2019-03-26T08:23:43.871Z,9452.00
2019-03-26T08:24:43.876Z,11596.00
2019-03-26T08:25:43.891Z,8868.00
2019-03-26T08:26:43.906Z,8912.00
2019-03-26T08:27:43.900Z,9812.00
2019-03-26T08:28:43.924Z,9980.00
2019-03-26T08:29:43.898Z,11076.00
2019-03-26T08:30:43.971Z,11912.00
2019-03-26T08:31:43.913Z,11420.00
2019-03-26T08:32:43.919Z,10688.00
2019-03-26T08:33:43.946Z,8952.00
2019-03-26T08:34:46.575Z,8688.00
2019-03-26T08:35:44.003Z,9284.00
2019-03-26T08:36:43.954Z,10084.00
2019-03-26T08:37:43.979Z,10084.00
2019-03-26T08:38:43.942Z,13856.00
2019-03-26T08:39:43.978Z,13948.00
2019-03-26T08:40:43.998Z,12144.00
2019-03-26T08:41:43.995Z,12752.00
2019-03-26T08:42:43.971Z,12132.00
2019-03-26T08:43:43.968Z,11372.00
2019-03-26T08:44:44.021Z,9124.00
2019-03-26T08:45:43.991Z,9296.00
2019-03-26T08:46:46.293Z,10720.00
2019-03-26T08:47:44.041Z,10700.00
2019-03-26T08:48:43.988Z,9344.00
2019-03-26T08:49:43.997Z,9532.00
2019-03-26T08:50:44.002Z,8244.00
2019-03-26T08:51:44.045Z,8820.00
2019-03-26T08:52:44.060Z,9032.00
2019-03-26T08:53:44.031Z,10152.00
2019-03-26T08:54:44.042Z,11712.00
2019-03-26T08:55:44.058Z,12408.00
2019-03-26T08:56:44.102Z,11852.00
2019-03-26T08:57:44.047Z,12068.00
2019-03-26T08:58:44.067Z,11920.00
2019-03-26T08:59:44.073Z,12328.00
2019-03-26T09:00:44.075Z,12760.00
2019-03-26T09:01:44.089Z,12260.00
2019-03-26T09:02:44.153Z,11924.00
2019-03-26T09:03:44.087Z,11692.00
2019-03-26T09:04:44.100Z,10744.00
2019-03-26T09:05:44.120Z,11536.00
2019-03-26T09:06:44.110Z,11864.00
2019-03-26T09:07:44.130Z,12920.00
2019-03-26T09:08:44.724Z,11880.00
2019-03-26T09:09:44.128Z,10196.00
2019-03-26T09:10:51.651Z,10324.00
2019-03-26T09:11:44.140Z,10072.00
2019-03-26T09:12:44.175Z,9352.00
2019-03-26T09:13:44.156Z,8904.00
2019-03-26T09:14:44.162Z,9900.00
2019-03-26T09:15:44.165Z,10620.00
2019-03-26T09:16:44.183Z,10320.00
2019-03-26T09:17:44.821Z,9812.00
2019-03-26T09:18:44.194Z,10296.00
2019-03-26T09:19:44.280Z,9868.00
2019-03-26T09:20:44.230Z,10584.00
2019-03-26T09:21:44.219Z,11332.00
2019-03-26T09:22:44.199Z,10836.00
2019-03-26T09:23:44.261Z,10740.00
2019-03-26T09:24:44.453Z,10684.00
2019-03-26T09:25:44.235Z,11880.00
2019-03-26T09:26:44.221Z,12572.00
2019-03-26T09:27:44.308Z,12620.00
2019-03-26T09:28:44.264Z,11352.00
2019-03-26T09:29:44.228Z,10228.00
2019-03-26T09:30:44.307Z,11100.00
2019-03-26T09:31:44.235Z,11528.00
2019-03-26T09:32:44.243Z,11332.00
2019-03-26T09:33:44.260Z,12480.00
2019-03-26T09:34:44.301Z,13340.00
2019-03-26T09:35:44.474Z,14156.00
2019-03-26T09:36:44.279Z,14272.00
2019-03-26T09:37:44.299Z,14176.00
2019-03-26T09:38:44.295Z,14456.00
2019-03-26T09:39:44.308Z,14172.00
2019-03-26T09:40:44.298Z,13016.00
2019-03-26T09:41:44.366Z,11800.00
2019-03-26T09:42:44.321Z,11068.00
2019-03-26T09:43:44.316Z,12048.00
2019-03-26T09:44:44.317Z,13344.00
2019-03-26T09:45:44.336Z,13384.00
2019-03-26T09:46:44.390Z,13188.00
2019-03-26T09:47:44.361Z,12924.00
2019-03-26T09:48:44.363Z,12816.00
2019-03-26T09:49:44.360Z,12772.00
2019-03-26T09:50:44.380Z,13036.00
2019-03-26T09:51:44.378Z,13484.00
2019-03-26T09:52:44.404Z,14116.00
2019-03-26T09:53:44.381Z,13928.00
2019-03-26T09:54:44.398Z,13744.00
2019-03-26T09:55:44.406Z,13616.00
2019-03-26T09:56:44.404Z,13440.00
2019-03-26T09:57:44.441Z,13428.00
2019-03-26T09:58:44.426Z,13232.00
2019-03-26T09:59:44.422Z,13360.00
2019-03-26T10:00:44.609Z,13648.00
2019-03-26T10:01:44.430Z,13632.00
2019-03-26T10:02:44.601Z,13324.00
2019-03-26T10:03:44.454Z,14100.00
2019-03-26T10:04:44.459Z,13964.00
2019-03-26T10:05:44.453Z,13968.00
2019-03-26T10:06:44.470Z,13704.00
2019-03-26T10:07:45.997Z,13384.00
2019-03-26T10:08:52.296Z,14656.00
2019-03-26T10:09:44.503Z,14832.00
2019-03-26T10:10:44.555Z,15044.00
2019-03-26T10:11:44.505Z,14364.00
2019-03-26T10:12:44.529Z,13284.00
2019-03-26T10:13:44.541Z,11220.00
2019-03-26T10:14:44.536Z,9952.00
2019-03-26T10:15:44.536Z,9544.00
2019-03-26T10:16:44.624Z,9548.00
2019-03-26T10:17:44.565Z,9456.00
2019-03-26T10:18:44.542Z,8732.00
2019-03-26T10:19:44.566Z,8132.00
2019-03-26T10:20:44.585Z,8268.00
2019-03-26T10:21:44.557Z,8132.00
2019-03-26T10:22:44.588Z,7492.00
2019-03-26T10:23:44.597Z,7416.00
2019-03-26T10:24:44.599Z,6360.00
2019-03-26T10:25:44.594Z,5192.00
2019-03-26T10:26:44.626Z,4900.00
2019-03-26T10:27:44.623Z,5304.00
2019-03-26T10:28:45.141Z,6780.00
2019-03-26T10:29:44.638Z,8388.00
2019-03-26T10:30:44.709Z,10920.00
2019-03-26T10:31:44.868Z,11812.00
2019-03-26T10:32:44.622Z,12864.00
2019-03-26T10:33:44.642Z,13420.00
2019-03-26T10:34:44.670Z,14156.00
2019-03-26T10:35:44.695Z,12968.00
2019-03-26T10:36:44.648Z,11900.00
2019-03-26T10:37:44.672Z,11300.00
2019-03-26T10:38:44.671Z,9916.00
2019-03-26T10:39:44.682Z,7996.00
2019-03-26T10:40:44.772Z,7680.00
2019-03-26T10:41:44.723Z,9476.00
2019-03-26T10:42:44.757Z,10128.00
2019-03-26T10:43:44.692Z,8516.00
2019-03-26T10:44:44.701Z,9020.00
2019-03-26T10:45:44.734Z,8732.00
2019-03-26T10:46:44.774Z,8656.00
2019-03-26T10:47:44.735Z,8048.00
2019-03-26T10:48:44.803Z,9788.00
2019-03-26T10:49:44.732Z,10572.00
2019-03-26T10:50:44.760Z,10420.00
2019-03-26T10:51:44.774Z,10904.00
2019-03-26T10:52:44.802Z,11580.00
2019-03-26T10:53:44.798Z,10776.00
2019-03-26T10:54:44.802Z,10876.00
2019-03-26T10:55:44.788Z,11808.00
2019-03-26T10:56:44.847Z,11456.00
2019-03-26T10:57:44.788Z,12580.00
2019-03-26T10:58:44.795Z,12684.00
2019-03-26T10:59:44.816Z,10980.00
2019-03-26T11:00:45.241Z,13752.00
2019-03-26T11:01:44.812Z,15844.00
2019-03-26T11:02:45.071Z,14832.00
2019-03-26T11:03:44.899Z,13224.00
2019-03-26T11:04:44.852Z,10420.00
2019-03-26T11:05:44.837Z,10944.00
2019-03-26T11:06:44.869Z,14016.00
2019-03-26T11:07:44.860Z,13360.00
2019-03-26T11:08:45.322Z,13020.00
2019-03-26T11:09:44.914Z,13236.00
2019-03-26T11:10:44.875Z,15044.00
2019-03-26T11:11:44.883Z,13992.00
2019-03-26T11:12:44.908Z,12936.00
2019-03-26T11:13:44.916Z,13632.00
2019-03-26T11:14:44.923Z,13896.00
2019-03-26T11:15:44.931Z,14332.00
2019-03-26T11:16:44.942Z,12232.00
2019-03-26T11:17:45.016Z,11312.00
2019-03-26T11:18:44.950Z,11516.00
2019-03-26T11:19:46.402Z,9664.00
2019-03-26T11:20:44.964Z,8828.00
2019-03-26T11:21:44.943Z,10164.00
2019-03-26T11:22:44.943Z,11436.00
2019-03-26T11:23:44.966Z,11260.00
2019-03-26T11:24:44.992Z,8160.00
2019-03-26T11:25:45.020Z,6672.00
2019-03-26T11:26:44.977Z,7204.00
2019-03-26T11:27:44.977Z,9180.00
2019-03-26T11:28:45.027Z,8344.00
2019-03-26T11:29:45.045Z,7012.00
2019-03-26T11:30:44.998Z,8092.00
2019-03-26T11:31:45.056Z,8652.00
2019-03-26T11:32:45.033Z,8464.00
2019-03-26T11:33:45.033Z,9180.00
2019-03-26T11:34:45.043Z,8996.00
2019-03-26T11:35:45.082Z,7184.00
2019-03-26T11:36:45.053Z,6872.00
2019-03-26T11:37:45.062Z,6660.00
2019-03-26T11:38:45.054Z,5668.00
2019-03-26T11:39:45.080Z,4384.00
2019-03-26T11:40:45.068Z,4184.00
2019-03-26T11:41:45.107Z,4028.00
2019-03-26T11:42:45.119Z,3496.00
2019-03-26T11:43:45.090Z,3788.00
2019-03-26T11:44:45.085Z,4764.00
2019-03-26T11:45:45.108Z,6104.00
2019-03-26T11:46:45.110Z,6588.00
2019-03-26T11:47:45.170Z,7212.00
2019-03-26T11:48:45.130Z,7308.00
2019-03-26T11:49:45.134Z,7048.00
2019-03-26T11:50:45.125Z,7064.00
2019-03-26T11:51:45.140Z,6252.00
2019-03-26T11:52:45.142Z,5544.00
2019-03-26T11:53:45.201Z,5324.00
2019-03-26T11:54:45.159Z,4328.00
2019-03-26T11:55:45.175Z,3696.00
2019-03-26T11:56:45.185Z,3944.00
2019-03-26T11:57:45.190Z,3904.00
2019-03-26T11:58:45.194Z,3708.00
2019-03-26T11:59:45.218Z,4704.00
2019-03-26T12:00:45.200Z,6032.00
2019-03-26T12:01:45.208Z,7052.00
2019-03-26T12:02:45.248Z,7612.00
2019-03-26T12:03:45.205Z,7376.00
2019-03-26T12:04:45.225Z,7140.00
2019-03-26T12:05:45.236Z,7448.00
2019-03-26T12:06:45.253Z,8380.00
2019-03-26T12:07:45.245Z,9472.00
2019-03-26T12:08:45.246Z,11352.00
2019-03-26T12:09:46.796Z,13156.00
2019-03-26T12:10:45.266Z,12940.00
2019-03-26T12:11:45.259Z,11588.00
2019-03-26T12:12:45.276Z,10272.00
2019-03-26T12:13:45.287Z,9632.00
2019-03-26T12:14:45.352Z,9200.00
2019-03-26T12:15:45.293Z,8716.00
2019-03-26T12:16:45.267Z,8356.00
2019-03-26T12:17:45.276Z,8688.00
2019-03-26T12:18:45.279Z,8836.00
2019-03-26T12:19:45.282Z,7088.00
2019-03-26T12:20:45.327Z,7704.00
2019-03-26T12:21:45.322Z,10588.00
2019-03-26T12:22:45.311Z,10264.00
2019-03-26T12:23:45.311Z,7064.00
2019-03-26T12:24:45.358Z,6780.00
2019-03-26T12:25:45.377Z,7760.00
2019-03-26T12:26:45.384Z,8300.00
2019-03-26T12:27:45.347Z,8456.00
2019-03-26T12:28:45.356Z,10028.00
2019-03-26T12:29:45.344Z,12676.00
2019-03-26T12:30:45.358Z,11256.00
2019-03-26T12:31:45.406Z,9284.00
2019-03-26T12:32:45.380Z,7740.00
2019-03-26T12:33:45.372Z,6676.00
2019-03-26T12:34:45.384Z,7024.00
2019-03-26T12:35:45.425Z,7400.00
2019-03-26T12:36:45.394Z,7840.00
2019-03-26T12:37:45.449Z,7884.00
2019-03-26T12:38:45.398Z,8660.00
2019-03-26T12:39:58.605Z,9116.00
2019-03-26T12:40:45.410Z,9392.00
2019-03-26T12:41:45.417Z,9444.00
2019-03-26T12:42:45.442Z,10012.00
2019-03-26T12:43:45.454Z,10572.00
2019-03-26T12:44:45.439Z,10384.00
2019-03-26T12:45:45.444Z,11180.00
2019-03-26T12:46:45.449Z,10784.00
2019-03-26T12:47:45.486Z,9864.00
2019-03-26T12:48:45.477Z,11448.00
2019-03-26T12:49:45.489Z,12788.00
2019-03-26T12:50:45.451Z,14128.00
2019-03-26T12:51:45.487Z,13556.00
2019-03-26T12:52:45.472Z,13308.00
2019-03-26T12:53:45.487Z,11460.00
2019-03-26T12:54:45.472Z,10904.00
2019-03-26T12:55:45.483Z,10536.00
2019-03-26T12:56:45.540Z,9552.00
2019-03-26T12:57:45.507Z,9620.00
2019-03-26T12:58:45.535Z,9468.00
2019-03-26T12:59:45.511Z,10708.00
2019-03-26T13:00:45.513Z,11652.00
2019-03-26T13:01:45.532Z,12224.00
2019-03-26T13:02:45.529Z,11944.00
2019-03-26T13:03:45.639Z,13256.00
2019-03-26T13:04:45.530Z,11788.00
2019-03-26T13:05:45.567Z,9592.00
2019-03-26T13:06:45.557Z,8944.00
2019-03-26T13:07:45.568Z,9504.00
2019-03-26T13:08:45.612Z,8824.00
2019-03-26T13:09:45.628Z,8592.00
2019-03-26T13:10:53.263Z,8884.00
2019-03-26T13:11:45.604Z,9152.00
2019-03-26T13:12:45.606Z,9672.00
2019-03-26T13:13:45.617Z,8944.00
2019-03-26T13:14:45.610Z,8468.00
2019-03-26T13:15:45.663Z,8936.00
2019-03-26T13:16:45.619Z,8464.00
2019-03-26T13:17:45.622Z,8880.00
2019-03-26T13:18:45.670Z,9452.00
2019-03-26T13:19:45.639Z,10172.00
2019-03-26T13:20:45.641Z,9940.00
2019-03-26T13:21:45.669Z,9304.00
2019-03-26T13:22:45.654Z,9580.00
2019-03-26T13:23:45.669Z,10488.00
2019-03-26T13:24:45.674Z,9900.00
2019-03-26T13:25:45.689Z,9544.00
2019-03-26T13:26:48.770Z,10360.00
2019-03-26T13:27:45.756Z,11476.00
2019-03-26T13:28:45.702Z,12160.00
2019-03-26T13:29:45.701Z,11196.00
2019-03-26T13:30:45.778Z,10404.00
2019-03-26T13:31:45.725Z,11284.00
2019-03-26T13:32:45.732Z,12648.00
2019-03-26T13:33:45.737Z,13396.00
2019-03-26T13:34:45.733Z,13100.00
2019-03-26T13:35:45.737Z,13156.00
2019-03-26T13:36:45.766Z,14196.00
2019-03-26T13:37:45.765Z,15552.00
2019-03-26T13:38:45.772Z,16804.00
2019-03-26T13:39:45.767Z,15604.00
2019-03-26T13:40:45.786Z,13928.00
2019-03-26T13:41:45.786Z,14468.00
2019-03-26T13:42:45.814Z,15920.00
2019-03-26T13:43:45.803Z,16148.00
2019-03-26T13:44:45.812Z,16000.00
2019-03-26T13:45:45.821Z,14364.00
2019-03-26T13:46:45.830Z,12668.00
2019-03-26T13:47:45.833Z,11156.00
2019-03-26T13:48:45.812Z,8948.00
2019-03-26T13:49:45.841Z,9528.00
2019-03-26T13:50:45.847Z,9500.00
2019-03-26T13:51:45.854Z,7216.00
2019-03-26T13:52:45.906Z,4404.00
2019-03-26T13:53:45.868Z,3172.00
2019-03-26T13:54:45.860Z,2668.00
2019-03-26T13:55:45.894Z,2432.00
2019-03-26T13:56:45.860Z,1988.00
2019-03-26T13:57:45.897Z,1492.00
2019-03-26T13:58:45.908Z,1248.00
2019-03-26T13:59:48.889Z,1380.00
2019-03-26T14:00:45.943Z,1780.00
2019-03-26T14:01:45.933Z,1604.00
2019-03-26T14:02:45.909Z,1796.00
2019-03-26T14:03:45.953Z,3064.00
2019-03-26T14:04:46.011Z,3600.00
2019-03-26T14:05:45.921Z,3548.00
2019-03-26T14:06:45.931Z,3916.00
2019-03-26T14:07:45.945Z,4564.00
2019-03-26T14:08:45.950Z,5652.00
2019-03-26T14:09:45.943Z,6752.00
2019-03-26T14:10:45.993Z,6564.00
2019-03-26T14:11:45.983Z,6012.00
2019-03-26T14:12:45.964Z,5852.00
2019-03-26T14:13:45.986Z,5824.00
2019-03-26T14:14:45.972Z,5416.00
2019-03-26T14:15:46.037Z,5592.00
2019-03-26T14:16:45.986Z,8412.00
2019-03-26T14:17:45.998Z,9976.00
2019-03-26T14:18:46.005Z,9420.00
2019-03-26T14:19:46.004Z,8820.00
2019-03-26T14:20:46.027Z,8464.00
2019-03-26T14:21:46.029Z,8420.00
2019-03-26T14:22:46.036Z,8060.00
2019-03-26T14:23:46.037Z,7860.00
2019-03-26T14:24:46.051Z,8620.00
2019-03-26T14:25:46.088Z,9144.00
2019-03-26T14:26:46.077Z,8820.00
2019-03-26T14:27:46.058Z,7668.00
2019-03-26T14:28:46.064Z,7196.00
2019-03-26T14:29:46.067Z,7568.00
2019-03-26T14:30:46.082Z,8692.00
2019-03-26T14:31:46.095Z,10124.00
2019-03-26T14:32:46.089Z,10444.00
2019-03-26T14:33:46.130Z,10020.00
2019-03-26T14:34:50.216Z,9708.00
2019-03-26T14:35:46.116Z,9800.00
2019-03-26T14:36:46.172Z,9976.00
2019-03-26T14:37:51.502Z,10292.00
2019-03-26T14:38:46.152Z,9276.00
2019-03-26T14:39:46.115Z,7540.00
2019-03-26T14:40:54.734Z,6600.00
2019-03-26T14:41:46.119Z,6396.00
2019-03-26T14:42:46.131Z,6088.00
2019-03-26T14:43:46.164Z,5532.00
2019-03-26T14:44:46.169Z,5236.00
2019-03-26T14:45:46.150Z,5184.00
2019-03-26T14:46:46.154Z,5240.00
2019-03-26T14:47:46.197Z,5288.00
2019-03-26T14:48:46.168Z,5316.00
2019-03-26T14:49:46.170Z,5324.00
2019-03-26T14:50:46.216Z,5328.00
2019-03-26T14:51:46.181Z,5328.00
2019-03-26T14:52:46.191Z,5336.00
2019-03-26T14:53:46.243Z,5404.00
2019-03-26T14:54:46.212Z,5768.00
2019-03-26T14:55:46.262Z,6420.00
2019-03-26T14:56:46.202Z,7060.00
2019-03-26T14:57:46.217Z,6988.00
2019-03-26T14:58:46.223Z,7188.00
2019-03-26T14:59:46.289Z,6952.00
2019-03-26T15:00:46.240Z,6004.00
2019-03-26T15:01:46.302Z,5704.00
2019-03-26T15:02:46.263Z,6292.00
2019-03-26T15:03:46.264Z,6388.00
2019-03-26T15:04:46.255Z,6148.00
2019-03-26T15:05:46.275Z,6584.00
2019-03-26T15:06:46.286Z,7288.00
2019-03-26T15:07:46.289Z,6740.00
2019-03-26T15:08:46.302Z,6336.00
2019-03-26T15:09:46.286Z,7092.00
2019-03-26T15:10:46.295Z,7904.00
2019-03-26T15:11:46.295Z,8416.00
2019-03-26T15:12:46.376Z,8592.00
2019-03-26T15:13:49.333Z,8296.00
2019-03-26T15:14:46.317Z,7976.00
2019-03-26T15:15:46.325Z,8032.00
2019-03-26T15:16:46.344Z,7756.00
2019-03-26T15:17:46.345Z,7352.00
2019-03-26T15:18:46.375Z,6656.00
2019-03-26T15:19:46.390Z,6488.00
2019-03-26T15:20:46.363Z,6744.00
2019-03-26T15:21:46.349Z,6288.00
2019-03-26T15:22:46.402Z,5772.00
2019-03-26T15:23:46.364Z,5420.00
2019-03-26T15:24:46.394Z,5000.00
2019-03-26T15:25:46.372Z,5364.00
2019-03-26T15:26:46.402Z,5332.00
2019-03-26T15:27:46.429Z,5044.00
2019-03-26T15:28:46.382Z,5044.00
2019-03-26T15:29:46.391Z,5084.00
2019-03-26T15:30:46.403Z,4940.00
2019-03-26T15:31:46.414Z,4820.00
2019-03-26T15:32:46.711Z,4956.00
2019-03-26T15:33:46.462Z,5068.00
2019-03-26T15:34:46.421Z,5284.00
2019-03-26T15:35:46.434Z,5460.00
2019-03-26T15:36:46.441Z,5932.00
2019-03-26T15:37:46.460Z,5952.00
2019-03-26T15:38:46.493Z,5548.00
2019-03-26T15:39:46.503Z,5560.00
2019-03-26T15:40:46.463Z,5744.00
2019-03-26T15:41:46.470Z,5728.00
2019-03-26T15:42:46.481Z,5444.00
2019-03-26T15:43:46.475Z,5688.00
2019-03-26T15:44:46.521Z,6656.00
2019-03-26T15:45:46.484Z,7364.00
2019-03-26T15:46:46.495Z,7428.00
2019-03-26T15:47:46.498Z,6920.00
2019-03-26T15:48:46.523Z,6532.00
2019-03-26T15:49:46.507Z,6228.00
2019-03-26T15:50:46.568Z,5920.00
2019-03-26T15:51:46.511Z,5512.00
2019-03-26T15:52:46.527Z,5184.00
2019-03-26T15:53:46.538Z,4844.00
2019-03-26T15:54:46.541Z,4656.00
2019-03-26T15:55:46.553Z,4732.00
2019-03-26T15:56:46.587Z,4856.00
2019-03-26T15:57:46.589Z,4416.00
2019-03-26T15:58:46.572Z,3844.00
2019-03-26T15:59:46.596Z,3524.00
